Time;durP1;ratioP1;P1;durP2;ratioP2;P2;SDS_P1;SDS_P2;PMS_P1;PMS_P2;Temp;Humidity;BMP_temperature;BMP_pressure;BME280_temperature;BME280_humidity;BME280_pressure;Samples;Min_cycle;Max_cycle;Signal;HPM_P1;HPM_P2
2021/12/15 00:01:02;;;;;;;34.90;24.07;;;4.30;99.90;;;;;;5091247;28;20535;-88
2021/12/15 00:03:28;;;;;;;35.97;23.90;;;4.20;99.90;;;;;;5091240;28;20227;-89
2021/12/15 00:05:55;;;;;;;30.27;23.37;;;4.20;99.90;;;;;;5072923;28;20332;-89
2021/12/15 00:08:20;;;;;;;36.87;23.27;;;4.20;99.90;;;;;;5091191;28;20166;-89
2021/12/15 00:10:48;;;;;;;33.27;22.97;;;4.10;99.90;;;;;;5091159;28;20225;-90
2021/12/15 00:13:16;;;;;;;34.90;23.47;;;4.10;99.90;;;;;;5091011;28;20219;-88
2021/12/15 00:15:43;;;;;;;36.67;24.57;;;4.10;99.90;;;;;;5090965;28;20176;-88
2021/12/15 00:18:09;;;;;;;35.40;23.83;;;4.20;99.90;;;;;;5072747;28;20182;-88
2021/12/15 00:20:36;;;;;;;37.73;23.60;;;4.10;99.90;;;;;;5072693;28;20258;-88
2021/12/15 00:23:03;;;;;;;32.90;24.37;;;4.10;99.90;;;;;;5072800;28;20179;-88
2021/12/15 00:25:34;;;;;;;39.93;23.47;;;4.10;99.90;;;;;;5072676;28;20170;-88
2021/12/15 00:28:00;;;;;;;37.00;23.20;;;4.00;99.90;;;;;;5072944;28;20644;-88
2021/12/15 00:30:26;;;;;;;33.60;22.87;;;4.00;99.90;;;;;;5090791;28;20227;-87
2021/12/15 00:32:52;;;;;;;30.23;21.23;;;3.90;99.90;;;;;;5072875;28;20456;-87
2021/12/15 00:35:19;;;;;;;31.73;23.67;;;4.00;99.90;;;;;;5090674;28;20601;-89
2021/12/15 00:37:45;;;;;;;32.60;21.83;;;4.10;99.90;;;;;;5090936;28;20256;-87
2021/12/15 00:40:13;;;;;;;33.07;23.10;;;4.10;99.90;;;;;;5072665;28;20696;-87
2021/12/15 00:42:39;;;;;;;30.97;21.87;;;4.10;99.90;;;;;;5090704;28;20205;-86
2021/12/15 00:45:06;;;;;;;31.37;22.67;;;4.10;99.90;;;;;;5090623;28;20180;-88
2021/12/15 00:47:32;;;;;;;32.20;22.57;;;4.10;99.90;;;;;;5072375;28;20186;-88
2021/12/15 00:49:58;;;;;;;30.70;20.90;;;4.00;99.90;;;;;;5072520;28;20207;-88
2021/12/15 00:52:24;;;;;;;34.10;22.70;;;4.00;99.90;;;;;;5094036;28;20169;-87
2021/12/15 00:54:50;;;;;;;34.20;23.23;;;4.00;99.90;;;;;;5076241;28;20515;-88
2021/12/15 00:57:16;;;;;;;30.93;21.70;;;4.00;99.90;;;;;;5094630;28;20172;-87
2021/12/15 00:59:42;;;;;;;33.60;20.93;;;3.90;99.90;;;;;;5076301;28;20603;-87
2021/12/15 01:02:09;;;;;;;34.63;21.07;;;3.80;99.90;;;;;;5076320;28;20225;-86
2021/12/15 01:04:36;;;;;;;32.03;19.83;;;3.70;99.90;;;;;;5076036;28;20178;-86
2021/12/15 01:07:05;;;;;;;27.63;20.47;;;3.70;99.90;;;;;;5076017;28;20221;-88
2021/12/15 01:09:58;;;;;;;29.20;21.17;;;3.70;99.90;;;;;;5076865;28;20200;-88
2021/12/15 01:20:49;;;;;;;29.80;19.07;;;3.70;99.90;;;;;;5093985;28;20190;-88
2021/12/15 01:23:20;;;;;;;26.33;17.97;;;3.70;99.90;;;;;;5093885;28;20592;-88
2021/12/15 01:26:00;;;;;;;25.40;17.43;;;3.80;99.90;;;;;;5075553;28;20548;-88
2021/12/15 01:28:26;;;;;;;27.60;18.77;;;3.80;99.90;;;;;;5093823;28;20173;-88
2021/12/15 01:30:54;;;;;;;22.83;17.53;;;3.80;99.90;;;;;;5093907;28;20273;-87
2021/12/15 01:33:20;;;;;;;27.97;17.93;;;3.80;99.90;;;;;;5093861;28;20172;-87
2021/12/15 01:35:49;;;;;;;25.57;18.37;;;3.80;99.90;;;;;;5093838;28;20187;-88
2021/12/15 01:38:18;;;;;;;24.80;17.17;;;3.80;99.90;;;;;;5098795;28;20178;-87
2021/12/15 01:40:46;;;;;;;25.03;17.03;;;3.90;99.90;;;;;;5077393;28;20219;-87
2021/12/15 01:43:28;;;;;;;26.93;18.00;;;3.80;99.90;;;;;;5103938;28;20566;-87
2021/12/15 01:48:54;;;;;;;23.73;17.77;;;3.90;99.90;;;;;;5105111;28;20165;-87
2021/12/15 01:51:20;;;;;;;25.07;17.07;;;3.90;99.90;;;;;;5099271;28;20180;-88
2021/12/15 01:53:46;;;;;;;24.00;16.37;;;3.90;99.90;;;;;;5110673;28;20168;-87
2021/12/15 01:56:11;;;;;;;26.93;17.33;;;3.90;99.90;;;;;;5096132;28;20181;-88
2021/12/15 01:58:37;;;;;;;24.97;16.60;;;3.90;99.90;;;;;;5096431;28;20649;-87
2021/12/15 02:01:08;;;;;;;22.40;15.67;;;4.00;99.90;;;;;;5084816;28;20178;-87
2021/12/15 02:03:35;;;;;;;27.80;17.40;;;4.00;99.90;;;;;;5076119;28;20261;-87
2021/12/15 02:06:02;;;;;;;21.90;16.07;;;4.00;99.90;;;;;;5076528;28;20704;-87
2021/12/15 02:08:27;;;;;;;24.93;15.60;;;3.90;99.90;;;;;;5079307;28;20207;-88
2021/12/15 02:10:54;;;;;;;24.97;15.67;;;4.00;99.90;;;;;;5093529;28;20668;-88
2021/12/15 02:13:20;;;;;;;26.23;15.93;;;4.10;99.90;;;;;;5074568;28;20667;-89
2021/12/15 02:15:52;;;;;;;22.03;16.33;;;4.10;99.90;;;;;;5074810;28;20185;-89
2021/12/15 02:18:24;;;;;;;23.33;15.37;;;4.10;99.90;;;;;;5074609;28;20192;-89
2021/12/15 02:21:00;;;;;;;22.13;15.80;;;4.10;99.90;;;;;;5092819;28;20182;-89
2021/12/15 02:23:38;;;;;;;23.07;15.80;;;4.10;99.90;;;;;;5092740;28;20579;-87
2021/12/15 02:26:08;;;;;;;23.23;16.07;;;4.10;99.90;;;;;;5092671;28;20169;-88
2021/12/15 02:28:37;;;;;;;19.27;15.03;;;4.10;99.90;;;;;;5074176;28;20268;-89
2021/12/15 02:39:04;;;;;;;23.47;15.03;;;4.20;99.90;;;;;;5092738;28;20647;-89
2021/12/15 02:41:31;;;;;;;25.47;15.87;;;4.10;99.90;;;;;;5092264;28;20162;-89
2021/12/15 02:44:01;;;;;;;20.17;15.00;;;4.10;99.90;;;;;;5092373;28;20199;-88
2021/12/15 02:46:29;;;;;;;20.23;15.03;;;4.10;99.90;;;;;;5092677;28;20548;-88
2021/12/15 02:48:55;;;;;;;20.70;15.17;;;4.10;99.90;;;;;;5092493;28;20202;-89
2021/12/15 02:51:22;;;;;;;23.60;15.50;;;4.10;99.90;;;;;;5073992;28;20498;-88
2021/12/15 02:53:48;;;;;;;21.67;15.47;;;4.10;99.90;;;;;;5073914;28;20629;-89
2021/12/15 02:56:15;;;;;;;24.10;16.17;;;4.10;99.90;;;;;;5093607;28;20253;-90
2021/12/15 02:59:19;;;;;;;24.07;15.20;;;4.20;99.90;;;;;;5076797;28;20549;-88
2021/12/15 03:07:06;;;;;;;21.80;15.90;;;4.20;99.90;;;;;;5117060;28;20222;-88
2021/12/15 03:15:35;;;;;;;27.60;17.33;;;4.30;99.90;;;;;;5091765;28;20675;-89
2021/12/15 03:18:08;;;;;;;21.77;16.30;;;4.30;99.90;;;;;;5091587;28;20184;-88
2021/12/15 03:20:40;;;;;;;26.57;16.97;;;4.30;99.90;;;;;;5073408;28;20256;-89
2021/12/15 03:23:09;;;;;;;28.83;17.37;;;4.30;99.90;;;;;;5091873;28;20170;-88
2021/12/15 03:25:35;;;;;;;24.63;16.30;;;4.30;99.90;;;;;;5073427;28;20463;-89
2021/12/15 03:36:34;;;;;;;23.50;14.27;;;4.40;99.90;;;;;;5091791;28;20184;-88
2021/12/15 03:39:00;;;;;;;24.20;13.13;;;4.40;99.90;;;;;;5091483;28;20783;-87
2021/12/15 03:41:26;;;;;;;22.67;13.63;;;4.40;99.90;;;;;;5091440;28;20268;-87
2021/12/15 03:43:52;;;;;;;18.83;13.27;;;4.50;99.90;;;;;;5091295;28;20181;-87
2021/12/15 03:46:17;;;;;;;19.33;12.90;;;4.50;99.90;;;;;;5091095;28;20169;-87
2021/12/15 03:48:45;;;;;;;16.47;12.83;;;4.50;99.90;;;;;;5073042;28;20271;-87
2021/12/15 03:51:13;;;;;;;14.90;11.40;;;4.50;99.90;;;;;;5090883;28;20184;-87
2021/12/15 03:53:40;;;;;;;16.27;11.03;;;4.50;99.90;;;;;;5091165;28;20174;-87
2021/12/15 03:56:08;;;;;;;13.93;10.90;;;4.40;99.90;;;;;;5091062;28;20499;-87
2021/12/15 03:58:34;;;;;;;18.73;11.30;;;4.40;99.90;;;;;;5076425;28;20172;-87
2021/12/15 04:01:05;;;;;;;15.23;10.53;;;4.50;99.90;;;;;;5073324;28;20542;-87
2021/12/15 04:03:36;;;;;;;13.43;9.47;;;4.50;99.90;;;;;;5073094;28;20181;-87
2021/12/15 04:06:05;;;;;;;15.97;9.30;;;4.50;99.90;;;;;;5072753;28;20255;-87
2021/12/15 04:08:32;;;;;;;10.70;8.57;;;4.50;99.90;;;;;;5072724;28;20186;-88
2021/12/15 04:10:58;;;;;;;12.60;8.83;;;4.40;99.90;;;;;;5091003;28;20213;-87
2021/12/15 04:13:25;;;;;;;12.77;8.17;;;4.40;99.90;;;;;;5091130;28;20170;-87
2021/12/15 04:15:57;;;;;;;13.70;8.63;;;4.40;99.90;;;;;;5072871;28;20173;-87
2021/12/15 04:18:25;;;;;;;14.57;8.00;;;4.30;99.90;;;;;;5073141;28;20183;-87
2021/12/15 04:20:52;;;;;;;11.00;8.40;;;4.30;99.90;;;;;;5091750;28;20172;-88
2021/12/15 04:23:20;;;;;;;12.93;8.53;;;4.20;99.90;;;;;;5091639;28;20299;-87
2021/12/15 04:25:49;;;;;;;11.00;7.60;;;4.20;99.90;;;;;;5075056;28;20202;-88
2021/12/15 04:28:22;;;;;;;13.23;8.57;;;4.30;99.90;;;;;;5095831;28;20177;-87
2021/12/15 04:30:52;;;;;;;9.80;7.87;;;4.30;99.90;;;;;;5095029;28;20232;-85
2021/12/15 04:33:32;;;;;;;12.17;7.97;;;4.30;99.90;;;;;;5094952;28;20182;-88
2021/12/15 04:36:01;;;;;;;9.17;7.57;;;4.30;99.90;;;;;;5094869;28;20174;-88
2021/12/15 04:38:30;;;;;;;12.77;8.40;;;4.40;99.90;;;;;;5094817;28;20239;-88
2021/12/15 04:40:58;;;;;;;14.67;9.43;;;4.40;99.90;;;;;;5094856;28;20163;-87
2021/12/15 04:43:26;;;;;;;16.03;9.90;;;4.50;99.90;;;;;;5094875;28;20656;-87
2021/12/15 04:45:52;;;;;;;17.03;12.00;;;4.50;99.90;;;;;;5076780;28;20178;-88
2021/12/15 04:48:18;;;;;;;17.50;11.47;;;4.50;99.90;;;;;;5094841;28;20184;-87
2021/12/15 04:50:43;;;;;;;18.63;13.13;;;4.50;99.90;;;;;;5094856;28;20213;-88
2021/12/15 04:53:10;;;;;;;20.13;12.13;;;4.50;99.90;;;;;;5097363;28;20686;-87
2021/12/15 04:55:37;;;;;;;19.83;12.43;;;4.50;99.90;;;;;;5094563;28;20188;-88
2021/12/15 04:58:05;;;;;;;17.10;13.67;;;4.50;99.90;;;;;;5111483;28;20608;-88
2021/12/15 05:00:36;;;;;;;19.80;13.53;;;4.50;99.90;;;;;;5096277;28;20182;-88
2021/12/15 05:03:03;;;;;;;21.33;15.63;;;4.50;99.90;;;;;;5077264;28;20268;-88
2021/12/15 05:05:31;;;;;;;18.63;14.90;;;4.50;99.90;;;;;;5075864;28;20334;-87
2021/12/15 05:07:57;;;;;;;21.03;16.00;;;4.50;99.90;;;;;;5094386;28;20160;-87
2021/12/15 05:10:24;;;;;;;22.03;15.83;;;4.50;99.90;;;;;;5094025;28;20251;-87
2021/12/15 05:12:50;;;;;;;25.67;17.13;;;4.50;99.90;;;;;;5094000;28;20254;-88
2021/12/15 05:15:17;;;;;;;21.93;16.67;;;4.40;99.90;;;;;;5075924;28;20174;-87
2021/12/15 05:17:42;;;;;;;20.87;15.80;;;4.40;99.90;;;;;;5078502;28;20177;-87
2021/12/15 05:20:09;;;;;;;24.97;16.87;;;4.40;99.90;;;;;;5106233;28;20736;-87
2021/12/15 05:22:36;;;;;;;21.90;16.27;;;4.50;99.90;;;;;;5083337;28;20185;-87
2021/12/15 05:25:04;;;;;;;24.77;17.00;;;4.40;99.90;;;;;;5076599;28;20215;-86
2021/12/15 05:27:30;;;;;;;21.70;16.77;;;4.40;99.90;;;;;;5076885;28;20181;-86
2021/12/15 05:29:57;;;;;;;27.90;17.63;;;4.30;99.90;;;;;;5080431;28;20218;-88
2021/12/15 05:32:23;;;;;;;26.57;18.20;;;4.40;99.90;;;;;;5078628;28;20220;-90
2021/12/15 05:34:52;;;;;;;27.43;18.10;;;4.30;99.90;;;;;;5076775;28;20212;-88
2021/12/15 05:37:22;;;;;;;27.60;17.90;;;4.40;99.90;;;;;;5095226;28;20480;-87
2021/12/15 05:39:50;;;;;;;28.50;18.47;;;4.40;99.90;;;;;;5075578;28;20274;-87
2021/12/15 05:42:19;;;;;;;26.83;17.40;;;4.40;99.90;;;;;;5094216;28;20212;-89
2021/12/15 05:44:46;;;;;;;25.30;17.57;;;4.40;99.90;;;;;;5075595;28;20620;-88
2021/12/15 05:47:13;;;;;;;28.63;20.43;;;4.40;99.90;;;;;;5075459;28;20181;-88
2021/12/15 05:49:39;;;;;;;26.57;18.60;;;4.30;99.90;;;;;;5076828;28;20237;-88
2021/12/15 05:52:05;;;;;;;24.03;17.97;;;4.20;99.90;;;;;;5095338;28;20303;-87
2021/12/15 05:54:35;;;;;;;23.63;17.43;;;4.20;99.90;;;;;;5077034;28;20173;-88
2021/12/15 05:57:01;;;;;;;29.10;18.07;;;4.30;99.90;;;;;;5076462;28;20227;-89
2021/12/15 05:59:27;;;;;;;26.00;17.13;;;4.30;99.90;;;;;;5075085;28;20280;-88
2021/12/15 06:01:53;;;;;;;26.23;18.50;;;4.30;99.90;;;;;;5089732;28;20302;-87
2021/12/15 06:04:20;;;;;;;26.27;17.73;;;4.30;99.90;;;;;;5063910;28;20634;-88
2021/12/15 06:06:46;;;;;;;25.37;18.00;;;4.30;99.90;;;;;;5093173;28;20229;-89
2021/12/15 06:09:12;;;;;;;22.53;16.57;;;4.30;99.90;;;;;;5074996;28;20194;-88
2021/12/15 06:11:39;;;;;;;20.37;16.17;;;4.20;99.90;;;;;;5075354;28;20301;-89
2021/12/15 06:14:07;;;;;;;25.73;17.20;;;4.30;99.90;;;;;;5093902;28;20197;-89
2021/12/15 06:16:34;;;;;;;28.67;18.13;;;4.30;99.90;;;;;;5075383;28;20583;-89
2021/12/15 06:19:02;;;;;;;27.07;18.37;;;4.20;99.90;;;;;;5074917;28;20651;-88
2021/12/15 06:21:29;;;;;;;26.47;18.93;;;4.30;99.90;;;;;;5093069;28;20174;-86
2021/12/15 06:23:54;;;;;;;24.67;18.17;;;4.30;99.90;;;;;;5093154;28;20223;-89
2021/12/15 06:26:21;;;;;;;27.10;18.83;;;4.30;99.90;;;;;;5093146;28;20170;-87
2021/12/15 06:28:47;;;;;;;28.20;18.23;;;4.30;99.90;;;;;;5074382;28;20646;-88
2021/12/15 06:31:17;;;;;;;24.27;17.20;;;4.40;99.90;;;;;;5074839;28;20205;-88
2021/12/15 06:33:44;;;;;;;25.80;17.70;;;4.40;99.90;;;;;;5074618;28;20214;-89
2021/12/15 06:36:13;;;;;;;24.57;17.90;;;4.40;99.90;;;;;;5074615;28;20265;-88
2021/12/15 06:38:44;;;;;;;28.67;17.70;;;4.40;99.90;;;;;;5074504;28;20284;-88
2021/12/15 06:41:10;;;;;;;26.17;17.70;;;4.50;99.90;;;;;;5092798;28;20184;-88
2021/12/15 06:43:37;;;;;;;26.20;17.03;;;4.40;99.90;;;;;;5076461;28;20213;-89
2021/12/15 06:59:31;;;;;;;27.40;16.27;;;4.40;99.90;;;;;;5105996;28;20301;-87
2021/12/15 07:01:57;;;;;;;22.10;15.67;;;4.40;99.90;;;;;;5096449;28;20185;-85
2021/12/15 07:04:24;;;;;;;24.63;16.23;;;4.40;99.90;;;;;;5083119;28;20218;-88
2021/12/15 07:06:52;;;;;;;27.40;16.53;;;4.40;99.90;;;;;;5076903;28;20261;-88
2021/12/15 07:09:19;;;;;;;25.90;16.67;;;4.50;99.90;;;;;;5071405;28;20880;-87
2021/12/15 07:11:46;;;;;;;26.70;16.60;;;4.60;99.90;;;;;;5071603;28;20201;-89
2021/12/15 07:14:12;;;;;;;21.33;15.13;;;4.60;99.90;;;;;;5083223;28;20176;-88
2021/12/15 07:16:42;;;;;;;24.80;15.20;;;4.60;99.90;;;;;;5082556;28;20189;-88
2021/12/15 07:19:21;;;;;;;27.77;15.40;;;4.60;99.90;;;;;;5082891;28;20186;-87
2021/12/15 07:24:51;;;;;;;21.33;14.40;;;4.90;99.90;;;;;;5008827;28;20613;-88
2021/12/15 07:27:17;;;;;;;22.03;15.37;;;5.10;99.90;;;;;;5008624;28;20318;-87
2021/12/15 07:29:43;;;;;;;27.77;14.83;;;5.10;99.90;;;;;;4991646;28;20218;-87
2021/12/15 07:32:09;;;;;;;25.03;15.40;;;5.10;99.90;;;;;;5008473;28;20188;-88
2021/12/15 07:34:35;;;;;;;22.83;14.63;;;5.00;99.90;;;;;;4992182;28;20268;-89
2021/12/15 07:37:00;;;;;;;20.80;14.93;;;5.10;99.90;;;;;;4991798;28;20284;-88
2021/12/15 07:39:26;;;;;;;20.03;14.33;;;5.10;99.90;;;;;;5009432;28;20206;-89
2021/12/15 07:42:02;;;;;;;23.50;15.03;;;5.00;99.90;;;;;;4992785;28;20656;-87
2021/12/15 07:44:29;;;;;;;26.03;14.40;;;5.00;99.90;;;;;;4992334;28;20187;-87
2021/12/15 07:46:55;;;;;;;26.13;15.33;;;5.00;99.90;;;;;;4992406;28;20179;-88
2021/12/15 07:49:24;;;;;;;23.03;15.33;;;5.00;99.90;;;;;;4991582;28;20450;-88
2021/12/15 07:51:59;;;;;;;27.20;16.20;;;5.00;99.90;;;;;;5008390;28;20649;-88
2021/12/15 07:54:25;;;;;;;26.03;15.03;;;5.10;99.90;;;;;;5008469;28;20189;-88
2021/12/15 07:56:50;;;;;;;28.23;15.23;;;5.30;99.90;;;;;;5091072;28;20175;-88
2021/12/15 07:59:17;;;;;;;22.80;14.87;;;5.40;99.90;;;;;;5090799;28;20227;-89
2021/12/15 08:01:43;;;;;;;26.87;15.60;;;5.40;99.90;;;;;;5074848;28;20645;-88
2021/12/15 08:04:10;;;;;;;26.47;15.40;;;5.50;99.90;;;;;;5094798;28;20166;-88
2021/12/15 08:06:36;;;;;;;29.10;15.20;;;5.50;99.90;;;;;;5094458;28;20229;-88
2021/12/15 08:09:03;;;;;;;27.43;15.80;;;5.60;99.90;;;;;;5094669;28;20163;-88
2021/12/15 08:11:32;;;;;;;29.87;16.37;;;5.60;99.90;;;;;;5094706;28;20182;-87
2021/12/15 08:13:58;;;;;;;23.73;15.83;;;5.50;99.90;;;;;;5076312;28;20976;-88
2021/12/15 08:16:25;;;;;;;26.57;15.37;;;5.50;99.90;;;;;;5095059;28;20312;-89
2021/12/15 08:18:51;;;;;;;25.17;15.13;;;5.70;99.90;;;;;;5095048;28;20179;-88
2021/12/15 08:21:17;;;;;;;23.83;14.83;;;5.70;99.90;;;;;;5094669;28;20181;-88
2021/12/15 08:23:43;;;;;;;30.27;15.23;;;5.70;99.90;;;;;;5095143;28;20179;-88
2021/12/15 08:26:09;;;;;;;24.23;14.97;;;5.80;99.90;;;;;;5095063;28;20526;-88
2021/12/15 08:28:36;;;;;;;23.43;14.60;;;5.80;99.90;;;;;;5095213;28;20528;-88
2021/12/15 08:31:02;;;;;;;22.67;14.87;;;5.90;99.90;;;;;;5094409;28;20212;-87
2021/12/15 08:33:28;;;;;;;22.17;14.60;;;5.80;99.90;;;;;;5094529;28;20722;-88
2021/12/15 08:36:01;;;;;;;22.07;14.90;;;6.00;99.90;;;;;;5100179;28;20174;-88
2021/12/15 08:38:32;;;;;;;25.93;15.93;;;5.90;99.90;;;;;;5092498;28;20174;-88
2021/12/15 08:41:01;;;;;;;30.97;14.97;;;6.00;99.90;;;;;;5108249;28;20161;-87
2021/12/15 08:43:28;;;;;;;24.10;15.13;;;6.10;99.90;;;;;;5080131;28;20184;-87
2021/12/15 08:46:01;;;;;;;26.13;14.80;;;6.00;99.90;;;;;;5097045;28;20178;-89
2021/12/15 08:48:27;;;;;;;26.90;15.70;;;6.10;99.90;;;;;;5076663;28;20174;-88
2021/12/15 08:50:54;;;;;;;30.40;15.60;;;6.10;99.90;;;;;;5075756;28;20569;-88
2021/12/15 08:53:20;;;;;;;25.53;17.67;;;6.00;99.90;;;;;;5075624;28;20198;-89
2021/12/15 08:55:49;;;;;;;33.23;17.03;;;6.10;99.90;;;;;;5075315;28;20591;-88
2021/12/15 08:58:18;;;;;;;28.93;18.23;;;6.10;99.90;;;;;;5075331;28;20174;-88
2021/12/15 09:00:46;;;;;;;29.53;18.07;;;6.20;99.90;;;;;;5075228;28;20231;-89
2021/12/15 09:03:14;;;;;;;27.60;17.60;;;6.30;99.90;;;;;;5075204;28;20175;-88
2021/12/15 09:05:41;;;;;;;26.87;17.20;;;6.30;99.90;;;;;;5073036;28;20218;-87
2021/12/15 09:08:08;;;;;;;32.07;17.93;;;6.40;99.90;;;;;;5075295;28;20187;-87
2021/12/15 09:10:35;;;;;;;29.47;16.97;;;6.40;99.90;;;;;;5075197;28;20664;-87
2021/12/15 09:13:03;;;;;;;28.53;17.43;;;6.50;99.90;;;;;;5092983;28;20635;-88
2021/12/15 09:15:29;;;;;;;28.20;17.60;;;6.50;99.90;;;;;;5093758;28;20287;-88
2021/12/15 09:17:56;;;;;;;30.13;19.07;;;6.50;99.90;;;;;;5077407;28;20179;-88
2021/12/15 09:20:25;;;;;;;24.87;16.43;;;6.40;99.90;;;;;;5075481;28;20185;-89
2021/12/15 09:22:52;;;;;;;24.90;17.40;;;6.50;99.90;;;;;;5079536;28;20240;-88
2021/12/15 09:25:18;;;;;;;31.30;16.33;;;6.50;99.90;;;;;;5076590;28;20208;-89
2021/12/15 09:27:45;;;;;;;28.20;16.50;;;6.30;99.90;;;;;;5103850;28;20568;-88
2021/12/15 09:30:19;;;;;;;22.03;16.27;;;6.20;99.90;;;;;;5084102;28;20221;-88
2021/12/15 09:32:46;;;;;;;24.53;15.73;;;6.20;99.90;;;;;;5074900;28;20179;-87
2021/12/15 09:35:13;;;;;;;22.10;15.87;;;6.20;99.90;;;;;;5075198;28;20180;-87
2021/12/15 09:37:40;;;;;;;22.80;15.63;;;6.20;99.90;;;;;;5074951;28;20307;-87
2021/12/15 09:40:08;;;;;;;24.37;16.57;;;6.20;99.90;;;;;;5076716;28;20263;-85
2021/12/15 09:42:38;;;;;;;25.07;16.47;;;6.20;99.90;;;;;;5093249;28;20227;-88
2021/12/15 09:45:31;;;;;;;22.00;15.27;;;6.20;99.90;;;;;;5093140;28;20167;-87
2021/12/15 09:56:23;;;;;;;22.60;15.43;;;6.30;99.90;;;;;;5074412;28;20185;-88
2021/12/15 10:18:43;;;;;;;28.13;16.77;;;6.20;99.90;;;;;;5073812;28;20305;-85
2021/12/15 10:21:31;;;;;;;24.07;15.57;;;6.30;99.90;;;;;;5074655;28;20532;-88
2021/12/15 10:23:57;;;;;;;27.40;16.93;;;6.30;99.90;;;;;;5081912;28;20169;-88
2021/12/15 10:26:24;;;;;;;22.90;15.33;;;6.30;99.90;;;;;;5087956;28;20179;-88
2021/12/15 10:28:52;;;;;;;22.47;15.93;;;6.20;99.90;;;;;;5084303;28;20174;-86
2021/12/15 10:31:22;;;;;;;24.37;16.10;;;6.20;99.90;;;;;;5077938;28;20191;-87
2021/12/15 10:34:00;;;;;;;22.77;15.67;;;6.30;99.90;;;;;;5074136;28;20185;-88
2021/12/15 10:36:32;;;;;;;25.57;15.90;;;6.30;99.90;;;;;;5073140;28;20205;-87
2021/12/15 10:39:08;;;;;;;31.87;16.03;;;6.30;99.90;;;;;;5072999;28;20172;-88
2021/12/15 10:41:41;;;;;;;23.50;15.83;;;6.30;99.90;;;;;;5071700;28;20171;-87
2021/12/15 10:44:13;;;;;;;25.13;16.47;;;6.30;99.90;;;;;;5071792;28;20292;-88
2021/12/15 10:46:50;;;;;;;24.20;16.33;;;6.30;99.90;;;;;;5071344;28;20705;-88
2021/12/15 10:49:29;;;;;;;31.53;16.30;;;6.40;99.90;;;;;;5070641;28;20218;-88
2021/12/15 10:52:01;;;;;;;28.87;16.47;;;6.40;99.90;;;;;;5070262;28;20559;-87
2021/12/15 10:54:46;;;;;;;30.63;16.10;;;6.60;99.90;;;;;;5071788;28;20202;-87
2021/12/15 10:57:39;;;;;;;26.80;16.30;;;6.70;99.90;;;;;;5069825;28;20184;-87
2021/12/15 11:00:10;;;;;;;27.17;15.57;;;6.70;99.90;;;;;;5071052;28;20178;-87
2021/12/15 11:02:37;;;;;;;27.13;15.30;;;6.80;99.90;;;;;;5070724;28;20219;-87
2021/12/15 11:05:06;;;;;;;24.57;15.43;;;6.90;99.90;;;;;;5071290;28;20188;-87
2021/12/15 11:07:41;;;;;;;29.57;16.77;;;6.90;99.90;;;;;;5090385;28;20218;-87
2021/12/15 11:10:10;;;;;;;53.97;25.03;;;7.00;99.90;;;;;;5094840;28;20288;-87
2021/12/15 11:12:45;;;;;;;321.10;92.13;;;7.10;99.90;;;;;;5075027;28;20185;-86
2021/12/15 11:15:19;;;;;;;210.87;94.33;;;7.40;99.90;;;;;;5097426;28;20171;-88
2021/12/15 11:17:50;;;;;;;28.80;17.40;;;7.50;99.90;;;;;;5095593;28;20160;-87
2021/12/15 11:20:16;;;;;;;22.70;15.37;;;7.60;99.90;;;;;;5094016;28;20185;-87
2021/12/15 11:23:00;;;;;;;22.70;14.03;;;7.60;99.90;;;;;;5093977;28;20163;-87
2021/12/15 11:25:33;;;;;;;25.43;14.57;;;7.60;99.90;;;;;;5093433;28;20229;-87
2021/12/15 11:28:26;;;;;;;23.30;15.17;;;7.70;99.90;;;;;;5092451;28;20230;-87
2021/12/15 11:31:09;;;;;;;23.90;15.63;;;7.60;99.90;;;;;;5074409;28;20248;-88
2021/12/15 11:33:41;;;;;;;21.97;15.20;;;7.50;99.90;;;;;;5092699;28;20533;-87
2021/12/15 11:36:13;;;;;;;27.27;16.00;;;7.40;99.90;;;;;;5074304;28;20179;-87
2021/12/15 11:38:51;;;;;;;25.63;15.37;;;7.40;99.90;;;;;;5074136;28;20621;-88
2021/12/15 11:41:42;;;;;;;26.93;16.73;;;7.40;99.90;;;;;;5073271;28;20536;-88
2021/12/15 11:44:19;;;;;;;24.57;16.17;;;7.50;99.90;;;;;;5093381;28;20164;-87
2021/12/15 11:46:50;;;;;;;40.40;22.27;;;7.50;99.90;;;;;;5091232;28;20165;-88
2021/12/15 11:49:26;;;;;;;26.33;17.63;;;7.50;99.90;;;;;;5073626;28;20213;-88
2021/12/15 11:52:14;;;;;;;25.50;16.60;;;7.60;99.90;;;;;;5073176;28;20256;-88
2021/12/15 11:54:40;;;;;;;21.63;15.47;;;7.70;99.90;;;;;;5079402;28;20174;-89
2021/12/15 11:57:18;;;;;;;17.37;13.40;;;7.70;99.90;;;;;;5098186;28;20183;-86
2021/12/15 11:59:49;;;;;;;22.67;14.80;;;7.80;99.90;;;;;;5073914;28;20594;-86
2021/12/15 12:02:33;;;;;;;23.13;16.27;;;7.90;99.90;;;;;;5074210;28;20317;-87
2021/12/15 12:05:06;;;;;;;21.97;15.80;;;7.90;99.90;;;;;;5092742;28;20228;-88
2021/12/15 12:07:47;;;;;;;23.00;15.30;;;8.00;99.90;;;;;;5075651;28;20241;-88
2021/12/15 12:10:21;;;;;;;21.07;14.07;;;8.00;99.90;;;;;;5090024;28;20234;-88
2021/12/15 12:12:53;;;;;;;19.90;13.70;;;8.10;99.90;;;;;;5082453;28;20160;-88
2021/12/15 12:15:29;;;;;;;23.10;15.33;;;8.20;99.90;;;;;;5070288;28;20176;-88
2021/12/15 12:18:00;;;;;;;21.40;14.93;;;8.10;99.90;;;;;;5070253;28;20605;-87
2021/12/15 12:20:37;;;;;;;23.23;16.07;;;8.00;99.90;;;;;;5070366;28;20173;-88
2021/12/15 12:23:10;;;;;;;18.23;13.93;;;8.10;99.90;;;;;;5069350;28;20178;-88
2021/12/15 12:25:44;;;;;;;19.07;14.17;;;8.10;99.90;;;;;;5071176;28;20177;-89
2021/12/15 12:28:20;;;;;;;19.10;13.70;;;8.00;99.90;;;;;;5071367;28;20172;-88
2021/12/15 12:30:56;;;;;;;17.97;12.70;;;8.10;99.90;;;;;;5070051;28;20666;-89
2021/12/15 12:33:24;;;;;;;17.30;12.40;;;8.10;99.90;;;;;;5071505;28;20165;-89
2021/12/15 12:36:03;;;;;;;15.67;12.17;;;8.00;99.90;;;;;;5076346;28;20183;-89
2021/12/15 12:38:35;;;;;;;16.37;11.60;;;8.00;99.90;;;;;;5075841;28;20174;-89
2021/12/15 12:41:13;;;;;;;15.53;12.10;;;8.00;99.90;;;;;;5068922;28;20180;-89
2021/12/15 12:43:48;;;;;;;17.90;12.10;;;7.90;99.90;;;;;;5070546;28;20615;-89
2021/12/15 12:46:24;;;;;;;20.63;12.93;;;7.80;99.90;;;;;;5069909;28;20525;-89
2021/12/15 13:00:19;;;;;;;20.43;13.27;;;7.50;99.90;;;;;;5073493;28;20188;-88
2021/12/15 13:02:55;;;;;;;21.20;13.30;;;7.50;99.90;;;;;;5073052;28;20210;-88
2021/12/15 13:05:35;;;;;;;19.87;13.03;;;7.60;99.90;;;;;;5072124;28;20180;-89
2021/12/15 13:08:05;;;;;;;18.17;13.03;;;7.60;99.90;;;;;;5071962;28;20207;-89
2021/12/15 13:11:17;;;;;;;19.13;12.83;;;7.60;99.90;;;;;;5072017;28;20275;-89
2021/12/15 13:14:10;;;;;;;16.20;12.33;;;7.60;99.90;;;;;;5067270;28;20239;-89
2021/12/15 13:16:47;;;;;;;18.20;12.63;;;7.70;99.90;;;;;;5070307;28;20183;-88
2021/12/15 13:19:43;;;;;;;17.63;12.37;;;7.80;99.90;;;;;;5073304;28;20530;-89
2021/12/15 13:22:28;;;;;;;20.67;12.57;;;7.80;99.90;;;;;;5073380;28;20169;-89
2021/12/15 13:31:18;;;;;;;21.40;13.33;;;7.90;99.90;;;;;;5073164;28;20252;-88
2021/12/15 13:33:53;;;;;;;24.90;12.60;;;7.80;99.90;;;;;;5074948;28;20162;-89
2021/12/15 13:36:30;;;;;;;17.23;11.63;;;7.70;99.90;;;;;;5079672;28;20183;-89
2021/12/15 13:39:02;;;;;;;17.87;11.73;;;7.70;99.90;;;;;;5073765;28;20165;-89
2021/12/15 13:44:02;;;;;;;17.87;11.07;;;7.70;99.90;;;;;;5073430;28;20178;-89
2021/12/15 13:46:28;;;;;;;16.03;11.10;;;7.70;99.90;;;;;;5073233;28;20181;-89
2021/12/15 13:48:57;;;;;;;14.93;10.43;;;7.60;99.90;;;;;;5071674;28;20192;-89
2021/12/15 13:52:16;;;;;;;15.33;10.50;;;7.50;99.90;;;;;;5073593;28;20189;-89
2021/12/15 13:54:42;;;;;;;18.20;11.33;;;7.50;99.90;;;;;;5046419;28;20296;-89
2021/12/15 13:57:13;;;;;;;15.00;10.63;;;7.40;99.90;;;;;;5053414;28;20206;-89
2021/12/15 13:59:39;;;;;;;15.00;10.37;;;7.30;99.90;;;;;;5022934;28;20175;-89
2021/12/15 14:02:26;;;;;;;18.23;11.40;;;7.20;99.90;;;;;;5030755;28;20692;-90
2021/12/15 14:04:56;;;;;;;13.37;11.53;;;7.10;99.90;;;;;;5013534;28;20579;-90
2021/12/15 14:07:31;;;;;;;18.47;11.20;;;7.00;99.90;;;;;;5013426;28;20583;-88
2021/12/15 14:10:00;;;;;;;18.83;12.67;;;6.90;99.90;;;;;;5014498;28;20224;-89
2021/12/15 14:12:44;;;;;;;15.87;11.83;;;6.80;99.90;;;;;;5012930;28;20180;-88
2021/12/15 14:15:37;;;;;;;15.47;12.17;;;6.90;99.90;;;;;;5029963;28;20178;-89
2021/12/15 14:18:05;;;;;;;17.50;12.90;;;6.80;99.90;;;;;;5015768;28;20181;-89
2021/12/15 14:20:38;;;;;;;15.50;12.63;;;6.70;99.90;;;;;;5014037;28;20241;-88
2021/12/15 14:23:07;;;;;;;16.47;12.80;;;6.60;99.90;;;;;;5020352;28;20636;-88
2021/12/15 14:25:35;;;;;;;15.67;12.60;;;6.50;99.90;;;;;;5015920;28;20185;-87
2021/12/15 14:28:15;;;;;;;16.53;12.53;;;6.50;99.90;;;;;;5042283;28;20198;-89
2021/12/15 14:30:43;;;;;;;15.67;12.53;;;6.50;99.90;;;;;;5055275;28;20660;-88
2021/12/15 14:33:29;;;;;;;15.23;13.47;;;6.40;99.90;;;;;;5054788;28;20263;-88
2021/12/15 14:35:59;;;;;;;16.93;13.40;;;6.30;99.90;;;;;;5053994;28;20177;-88
2021/12/15 14:38:50;;;;;;;16.20;13.03;;;6.40;99.90;;;;;;5055237;28;20233;-89